sensor_id;sensor_type;location;lat;lon;timestamp;temperature;humidity
20866;DHT22;10593;48.398;10.698;2022-12-05T00:03:46;5.60;61.90
20866;DHT22;10593;48.398;10.698;2022-12-05T00:06:13;5.60;61.90
20866;DHT22;10593;48.398;10.698;2022-12-05T00:08:39;5.60;61.90
20866;DHT22;10593;48.398;10.698;2022-12-05T00:11:20;5.60;62.60
20866;DHT22;10593;48.398;10.698;2022-12-05T00:13:48;5.60;62.00
20866;DHT22;10593;48.398;10.698;2022-12-05T00:16:19;5.50;61.80
20866;DHT22;10593;48.398;10.698;2022-12-05T00:18:46;5.60;61.90
20866;DHT22;10593;48.398;10.698;2022-12-05T00:21:20;5.60;61.90
20866;DHT22;10593;48.398;10.698;2022-12-05T00:23:50;5.60;62.00
20866;DHT22;10593;48.398;10.698;2022-12-05T00:26:18;5.60;61.90
20866;DHT22;10593;48.398;10.698;2022-12-05T00:28:43;5.60;61.80
20866;DHT22;10593;48.398;10.698;2022-12-05T00:31:14;5.50;61.70
20866;DHT22;10593;48.398;10.698;2022-12-05T00:33:42;5.60;61.90
20866;DHT22;10593;48.398;10.698;2022-12-05T00:36:13;5.60;61.90
20866;DHT22;10593;48.398;10.698;2022-12-05T00:38:44;5.50;61.80
20866;DHT22;10593;48.398;10.698;2022-12-05T00:41:15;5.50;61.70
20866;DHT22;10593;48.398;10.698;2022-12-05T00:43:43;5.50;61.80
20866;DHT22;10593;48.398;10.698;2022-12-05T00:46:13;5.50;61.80
20866;DHT22;10593;48.398;10.698;2022-12-05T00:48:52;5.50;61.80
20866;DHT22;10593;48.398;10.698;2022-12-05T00:51:24;5.50;61.80
20866;DHT22;10593;48.398;10.698;2022-12-05T00:53:52;5.60;61.80
20866;DHT22;10593;48.398;10.698;2022-12-05T00:56:21;5.60;61.80
20866;DHT22;10593;48.398;10.698;2022-12-05T00:58:48;5.50;61.70
20866;DHT22;10593;48.398;10.698;2022-12-05T01:01:18;5.50;61.70
20866;DHT22;10593;48.398;10.698;2022-12-05T01:03:58;5.50;61.70
20866;DHT22;10593;48.398;10.698;2022-12-05T01:06:26;5.50;61.70
20866;DHT22;10593;48.398;10.698;2022-12-05T01:08:55;5.50;61.70
20866;DHT22;10593;48.398;10.698;2022-12-05T01:11:22;5.50;61.60
20866;DHT22;10593;48.398;10.698;2022-12-05T01:13:49;5.50;61.60
20866;DHT22;10593;48.398;10.698;2022-12-05T01:16:20;5.60;61.70
20866;DHT22;10593;48.398;10.698;2022-12-05T01:18:56;5.50;61.60
20866;DHT22;10593;48.398;10.698;2022-12-05T01:21:23;5.50;61.60
20866;DHT22;10593;48.398;10.698;2022-12-05T01:23:49;5.50;61.60
20866;DHT22;10593;48.398;10.698;2022-12-05T01:26:17;5.50;61.60
20866;DHT22;10593;48.398;10.698;2022-12-05T01:28:44;5.60;61.70
20866;DHT22;10593;48.398;10.698;2022-12-05T01:31:28;5.50;61.60
20866;DHT22;10593;48.398;10.698;2022-12-05T01:33:57;5.50;61.60
20866;DHT22;10593;48.398;10.698;2022-12-05T01:36:26;5.50;61.60
20866;DHT22;10593;48.398;10.698;2022-12-05T01:38:53;5.50;61.60
20866;DHT22;10593;48.398;10.698;2022-12-05T01:41:23;5.50;61.50
20866;DHT22;10593;48.398;10.698;2022-12-05T01:46:20;5.50;61.60
20866;DHT22;10593;48.398;10.698;2022-12-05T01:48:46;5.50;61.60
20866;DHT22;10593;48.398;10.698;2022-12-05T01:51:12;5.50;61.50
20866;DHT22;10593;48.398;10.698;2022-12-05T01:53:38;5.50;61.50
20866;DHT22;10593;48.398;10.698;2022-12-05T01:56:03;5.50;61.50
20866;DHT22;10593;48.398;10.698;2022-12-05T01:58:34;5.50;61.50
20866;DHT22;10593;48.398;10.698;2022-12-05T02:01:02;5.50;61.50
20866;DHT22;10593;48.398;10.698;2022-12-05T02:03:28;5.40;61.40
20866;DHT22;10593;48.398;10.698;2022-12-05T02:05:57;5.50;61.50
20866;DHT22;10593;48.398;10.698;2022-12-05T02:08:26;5.40;61.50
20866;DHT22;10593;48.398;10.698;2022-12-05T02:10:55;5.50;61.60
20866;DHT22;10593;48.398;10.698;2022-12-05T02:16:43;5.40;61.60
20866;DHT22;10593;48.398;10.698;2022-12-05T02:22:36;5.40;61.60
20866;DHT22;10593;48.398;10.698;2022-12-05T02:25:24;5.40;61.60
20866;DHT22;10593;48.398;10.698;2022-12-05T02:31:17;5.40;61.60
20866;DHT22;10593;48.398;10.698;2022-12-05T02:33:59;5.40;61.60
20866;DHT22;10593;48.398;10.698;2022-12-05T02:39:53;5.40;61.80
20866;DHT22;10593;48.398;10.698;2022-12-05T02:42:40;5.40;61.60
20866;DHT22;10593;48.398;10.698;2022-12-05T02:45:15;5.40;61.70
20866;DHT22;10593;48.398;10.698;2022-12-05T02:47:47;5.40;61.60
20866;DHT22;10593;48.398;10.698;2022-12-05T02:50:23;5.40;61.60
20866;DHT22;10593;48.398;10.698;2022-12-05T02:52:55;5.40;61.60
20866;DHT22;10593;48.398;10.698;2022-12-05T02:55:25;5.40;61.50
20866;DHT22;10593;48.398;10.698;2022-12-05T02:57:57;5.40;61.50
20866;DHT22;10593;48.398;10.698;2022-12-05T03:00:26;5.40;61.60
20866;DHT22;10593;48.398;10.698;2022-12-05T03:02:55;5.40;61.60
20866;DHT22;10593;48.398;10.698;2022-12-05T03:06:04;5.40;61.60
20866;DHT22;10593;48.398;10.698;2022-12-05T03:08:47;5.40;61.70
20866;DHT22;10593;48.398;10.698;2022-12-05T03:11:20;5.40;61.60
20866;DHT22;10593;48.398;10.698;2022-12-05T03:13:55;5.40;61.50
20866;DHT22;10593;48.398;10.698;2022-12-05T03:16:40;5.40;61.60
20866;DHT22;10593;48.398;10.698;2022-12-05T03:19:22;5.30;61.50
20866;DHT22;10593;48.398;10.698;2022-12-05T03:22:00;5.40;61.60
20866;DHT22;10593;48.398;10.698;2022-12-05T03:24:33;5.40;61.60
20866;DHT22;10593;48.398;10.698;2022-12-05T03:27:30;5.40;61.60
20866;DHT22;10593;48.398;10.698;2022-12-05T03:30:09;5.40;61.70
20866;DHT22;10593;48.398;10.698;2022-12-05T03:35:48;5.30;61.60
20866;DHT22;10593;48.398;10.698;2022-12-05T03:40:58;5.40;61.70
20866;DHT22;10593;48.398;10.698;2022-12-05T03:44:07;5.30;61.60
20866;DHT22;10593;48.398;10.698;2022-12-05T03:47:09;5.30;61.60
20866;DHT22;10593;48.398;10.698;2022-12-05T03:49:43;5.40;61.80
20866;DHT22;10593;48.398;10.698;2022-12-05T03:52:44;5.40;61.70
20866;DHT22;10593;48.398;10.698;2022-12-05T03:55:14;5.30;61.70
20866;DHT22;10593;48.398;10.698;2022-12-05T03:57:51;5.40;61.80
20866;DHT22;10593;48.398;10.698;2022-12-05T04:00:23;5.30;61.70
20866;DHT22;10593;48.398;10.698;2022-12-05T04:06:05;5.40;61.80
20866;DHT22;10593;48.398;10.698;2022-12-05T04:08:46;5.40;61.80
20866;DHT22;10593;48.398;10.698;2022-12-05T04:11:20;5.40;61.80
20866;DHT22;10593;48.398;10.698;2022-12-05T04:13:52;5.40;61.80
20866;DHT22;10593;48.398;10.698;2022-12-05T04:16:40;5.30;61.70
20866;DHT22;10593;48.398;10.698;2022-12-05T04:19:48;5.40;61.80
20866;DHT22;10593;48.398;10.698;2022-12-05T04:22:37;5.40;61.80
20866;DHT22;10593;48.398;10.698;2022-12-05T04:25:06;5.40;61.80
20866;DHT22;10593;48.398;10.698;2022-12-05T04:36:47;5.40;61.80
20866;DHT22;10593;48.398;10.698;2022-12-05T04:39:24;5.40;61.80
20866;DHT22;10593;48.398;10.698;2022-12-05T04:41:59;5.40;61.80
20866;DHT22;10593;48.398;10.698;2022-12-05T04:44:31;5.40;61.80
20866;DHT22;10593;48.398;10.698;2022-12-05T04:47:03;5.40;61.80
20866;DHT22;10593;48.398;10.698;2022-12-05T04:49:32;5.40;61.80
20866;DHT22;10593;48.398;10.698;2022-12-05T04:52:02;5.40;61.80
20866;DHT22;10593;48.398;10.698;2022-12-05T04:54:42;5.40;61.80
20866;DHT22;10593;48.398;10.698;2022-12-05T04:57:30;5.40;61.90
20866;DHT22;10593;48.398;10.698;2022-12-05T05:00:00;5.40;61.90
20866;DHT22;10593;48.398;10.698;2022-12-05T05:02:40;5.40;61.80
20866;DHT22;10593;48.398;10.698;2022-12-05T05:05:13;5.40;62.00
20866;DHT22;10593;48.398;10.698;2022-12-05T05:07:44;5.40;62.00
20866;DHT22;10593;48.398;10.698;2022-12-05T05:10:14;5.40;62.10
20866;DHT22;10593;48.398;10.698;2022-12-05T05:12:44;5.40;62.10
20866;DHT22;10593;48.398;10.698;2022-12-05T05:15:10;5.40;62.10
20866;DHT22;10593;48.398;10.698;2022-12-05T05:17:35;5.40;62.20
20866;DHT22;10593;48.398;10.698;2022-12-05T05:20:01;5.40;62.20
20866;DHT22;10593;48.398;10.698;2022-12-05T05:22:50;5.40;62.20
20866;DHT22;10593;48.398;10.698;2022-12-05T05:25:18;5.40;62.20
20866;DHT22;10593;48.398;10.698;2022-12-05T05:27:47;5.40;62.20
20866;DHT22;10593;48.398;10.698;2022-12-05T05:30:19;5.40;62.20
20866;DHT22;10593;48.398;10.698;2022-12-05T05:32:46;5.40;62.20
20866;DHT22;10593;48.398;10.698;2022-12-05T05:35:13;5.40;62.20
20866;DHT22;10593;48.398;10.698;2022-12-05T05:37:40;5.40;62.30
20866;DHT22;10593;48.398;10.698;2022-12-05T05:40:08;5.50;62.40
20866;DHT22;10593;48.398;10.698;2022-12-05T05:42:44;5.50;62.40
20866;DHT22;10593;48.398;10.698;2022-12-05T05:45:13;5.50;62.50
20866;DHT22;10593;48.398;10.698;2022-12-05T05:47:40;5.50;62.40
20866;DHT22;10593;48.398;10.698;2022-12-05T05:50:07;5.50;62.40
20866;DHT22;10593;48.398;10.698;2022-12-05T05:52:34;5.50;62.40
20866;DHT22;10593;48.398;10.698;2022-12-05T05:55:01;5.50;62.50
20866;DHT22;10593;48.398;10.698;2022-12-05T05:57:30;5.50;62.50
20866;DHT22;10593;48.398;10.698;2022-12-05T05:59:55;5.50;62.50
20866;DHT22;10593;48.398;10.698;2022-12-05T06:02:21;5.50;62.50
20866;DHT22;10593;48.398;10.698;2022-12-05T06:04:47;5.50;62.50
20866;DHT22;10593;48.398;10.698;2022-12-05T06:07:13;5.50;62.50
20866;DHT22;10593;48.398;10.698;2022-12-05T06:09:39;5.50;62.50
20866;DHT22;10593;48.398;10.698;2022-12-05T06:12:05;5.50;62.50
20866;DHT22;10593;48.398;10.698;2022-12-05T06:14:30;5.50;62.60
20866;DHT22;10593;48.398;10.698;2022-12-05T06:16:56;5.50;62.60
20866;DHT22;10593;48.398;10.698;2022-12-05T06:19:22;5.50;62.60
20866;DHT22;10593;48.398;10.698;2022-12-05T06:21:49;5.50;62.50
20866;DHT22;10593;48.398;10.698;2022-12-05T06:24:15;5.50;62.60
20866;DHT22;10593;48.398;10.698;2022-12-05T06:26:42;5.50;62.60
20866;DHT22;10593;48.398;10.698;2022-12-05T06:29:08;5.50;62.70
20866;DHT22;10593;48.398;10.698;2022-12-05T06:31:34;5.50;62.70
20866;DHT22;10593;48.398;10.698;2022-12-05T06:34:03;5.50;62.70
20866;DHT22;10593;48.398;10.698;2022-12-05T06:36:29;5.50;62.70
20866;DHT22;10593;48.398;10.698;2022-12-05T06:38:58;5.50;62.70
20866;DHT22;10593;48.398;10.698;2022-12-05T06:41:25;5.50;62.70
20866;DHT22;10593;48.398;10.698;2022-12-05T06:43:56;5.50;62.70
20866;DHT22;10593;48.398;10.698;2022-12-05T06:46:24;5.50;62.80
20866;DHT22;10593;48.398;10.698;2022-12-05T06:48:57;5.50;62.80
20866;DHT22;10593;48.398;10.698;2022-12-05T06:51:23;5.50;62.80
20866;DHT22;10593;48.398;10.698;2022-12-05T06:53:50;5.50;62.80
20866;DHT22;10593;48.398;10.698;2022-12-05T06:56:18;5.60;62.90
20866;DHT22;10593;48.398;10.698;2022-12-05T06:58:46;5.50;62.90
20866;DHT22;10593;48.398;10.698;2022-12-05T07:01:18;5.50;62.90
20866;DHT22;10593;48.398;10.698;2022-12-05T07:06:37;5.50;62.90
20866;DHT22;10593;48.398;10.698;2022-12-05T07:09:03;5.50;63.00
20866;DHT22;10593;48.398;10.698;2022-12-05T07:11:30;5.50;63.00
20866;DHT22;10593;48.398;10.698;2022-12-05T07:13:55;5.50;63.00
20866;DHT22;10593;48.398;10.698;2022-12-05T07:16:21;5.50;63.10
20866;DHT22;10593;48.398;10.698;2022-12-05T07:18:47;5.50;63.20
20866;DHT22;10593;48.398;10.698;2022-12-05T07:21:15;5.60;63.30
20866;DHT22;10593;48.398;10.698;2022-12-05T07:23:43;5.60;63.30
20866;DHT22;10593;48.398;10.698;2022-12-05T07:26:13;5.60;63.30
20866;DHT22;10593;48.398;10.698;2022-12-05T07:28:39;5.60;63.30
20866;DHT22;10593;48.398;10.698;2022-12-05T07:31:11;5.60;63.30
20866;DHT22;10593;48.398;10.698;2022-12-05T07:33:39;5.60;63.30
20866;DHT22;10593;48.398;10.698;2022-12-05T07:36:11;5.60;63.30
20866;DHT22;10593;48.398;10.698;2022-12-05T07:38:38;5.60;63.30
20866;DHT22;10593;48.398;10.698;2022-12-05T07:41:19;5.60;63.30
20866;DHT22;10593;48.398;10.698;2022-12-05T07:43:46;5.60;63.30
20866;DHT22;10593;48.398;10.698;2022-12-05T07:46:12;5.60;63.30
20866;DHT22;10593;48.398;10.698;2022-12-05T07:48:39;5.60;63.30
20866;DHT22;10593;48.398;10.698;2022-12-05T07:51:06;5.60;63.20
20866;DHT22;10593;48.398;10.698;2022-12-05T07:53:33;5.60;63.50
20866;DHT22;10593;48.398;10.698;2022-12-05T07:56:02;5.60;63.50
20866;DHT22;10593;48.398;10.698;2022-12-05T07:58:31;5.60;63.60
20866;DHT22;10593;48.398;10.698;2022-12-05T08:01:09;5.70;63.60
20866;DHT22;10593;48.398;10.698;2022-12-05T08:03:36;5.70;63.70
20866;DHT22;10593;48.398;10.698;2022-12-05T08:06:06;5.70;63.60
20866;DHT22;10593;48.398;10.698;2022-12-05T08:08:34;5.70;63.60
20866;DHT22;10593;48.398;10.698;2022-12-05T08:11:09;5.70;63.60
20866;DHT22;10593;48.398;10.698;2022-12-05T08:13:37;5.70;64.20
20866;DHT22;10593;48.398;10.698;2022-12-05T08:16:05;5.70;63.70
20866;DHT22;10593;48.398;10.698;2022-12-05T08:18:33;5.70;63.70
20866;DHT22;10593;48.398;10.698;2022-12-05T08:21:11;5.70;63.70
20866;DHT22;10593;48.398;10.698;2022-12-05T08:23:41;5.80;63.80
20866;DHT22;10593;48.398;10.698;2022-12-05T08:26:13;5.80;63.80
20866;DHT22;10593;48.398;10.698;2022-12-05T08:28:42;5.80;63.80
20866;DHT22;10593;48.398;10.698;2022-12-05T08:31:11;5.80;63.80
20866;DHT22;10593;48.398;10.698;2022-12-05T08:33:42;5.80;63.80
20866;DHT22;10593;48.398;10.698;2022-12-05T08:36:11;5.80;63.80
20866;DHT22;10593;48.398;10.698;2022-12-05T08:38:39;5.80;63.80
20866;DHT22;10593;48.398;10.698;2022-12-05T08:41:14;5.90;64.00
20866;DHT22;10593;48.398;10.698;2022-12-05T08:43:42;5.80;63.90
20866;DHT22;10593;48.398;10.698;2022-12-05T08:46:09;5.80;63.90
20866;DHT22;10593;48.398;10.698;2022-12-05T08:48:36;5.90;64.00
20866;DHT22;10593;48.398;10.698;2022-12-05T08:51:07;5.90;64.00
20866;DHT22;10593;48.398;10.698;2022-12-05T08:53:35;5.90;64.00
20866;DHT22;10593;48.398;10.698;2022-12-05T08:56:03;5.90;64.00
20866;DHT22;10593;48.398;10.698;2022-12-05T08:58:31;5.90;64.10
20866;DHT22;10593;48.398;10.698;2022-12-05T09:01:08;5.90;64.00
20866;DHT22;10593;48.398;10.698;2022-12-05T09:03:36;6.00;64.20
20866;DHT22;10593;48.398;10.698;2022-12-05T09:06:13;6.00;64.10
20866;DHT22;10593;48.398;10.698;2022-12-05T09:08:41;6.00;64.10
20866;DHT22;10593;48.398;10.698;2022-12-05T09:11:13;6.00;64.10
20866;DHT22;10593;48.398;10.698;2022-12-05T09:13:41;6.00;64.10
20866;DHT22;10593;48.398;10.698;2022-12-05T09:16:11;6.00;64.00
20866;DHT22;10593;48.398;10.698;2022-12-05T09:18:49;6.00;64.00
20866;DHT22;10593;48.398;10.698;2022-12-05T09:21:17;6.10;64.10
20866;DHT22;10593;48.398;10.698;2022-12-05T09:23:44;6.00;64.00
20866;DHT22;10593;48.398;10.698;2022-12-05T09:26:13;6.10;64.10
20866;DHT22;10593;48.398;10.698;2022-12-05T09:28:41;6.10;64.10
20866;DHT22;10593;48.398;10.698;2022-12-05T09:31:10;6.10;64.10
20866;DHT22;10593;48.398;10.698;2022-12-05T09:33:37;6.10;64.20
20866;DHT22;10593;48.398;10.698;2022-12-05T09:36:05;6.10;64.10
20866;DHT22;10593;48.398;10.698;2022-12-05T09:38:32;6.10;64.20
20866;DHT22;10593;48.398;10.698;2022-12-05T09:41:22;6.10;64.20
20866;DHT22;10593;48.398;10.698;2022-12-05T09:44:55;6.20;64.30
20866;DHT22;10593;48.398;10.698;2022-12-05T09:47:40;6.20;64.10
20866;DHT22;10593;48.398;10.698;2022-12-05T09:50:23;6.20;64.10
20866;DHT22;10593;48.398;10.698;2022-12-05T09:55:46;6.20;64.30
20866;DHT22;10593;48.398;10.698;2022-12-05T10:01:08;6.20;64.40
20866;DHT22;10593;48.398;10.698;2022-12-05T10:21:04;6.30;65.00
20866;DHT22;10593;48.398;10.698;2022-12-05T10:23:54;6.30;64.80
20866;DHT22;10593;48.398;10.698;2022-12-05T10:26:25;6.30;65.00
20866;DHT22;10593;48.398;10.698;2022-12-05T10:31:43;6.40;65.30
20866;DHT22;10593;48.398;10.698;2022-12-05T10:34:23;6.40;65.20
20866;DHT22;10593;48.398;10.698;2022-12-05T10:37:08;6.40;65.40
20866;DHT22;10593;48.398;10.698;2022-12-05T10:39:38;6.40;65.20
20866;DHT22;10593;48.398;10.698;2022-12-05T10:42:05;6.40;65.20
20866;DHT22;10593;48.398;10.698;2022-12-05T10:44:32;6.40;65.20
20866;DHT22;10593;48.398;10.698;2022-12-05T10:46:58;6.40;65.20
20866;DHT22;10593;48.398;10.698;2022-12-05T10:49:25;6.50;65.40
20866;DHT22;10593;48.398;10.698;2022-12-05T10:51:52;6.50;65.40
20866;DHT22;10593;48.398;10.698;2022-12-05T10:54:23;6.50;65.30
20866;DHT22;10593;48.398;10.698;2022-12-05T10:56:52;6.50;65.40
20866;DHT22;10593;48.398;10.698;2022-12-05T10:59:24;6.50;65.40
20866;DHT22;10593;48.398;10.698;2022-12-05T11:01:56;6.50;65.40
20866;DHT22;10593;48.398;10.698;2022-12-05T11:07:06;6.60;65.30
20866;DHT22;10593;48.398;10.698;2022-12-05T11:09:47;6.60;65.20
20866;DHT22;10593;48.398;10.698;2022-12-05T11:12:23;6.60;65.20
20866;DHT22;10593;48.398;10.698;2022-12-05T11:17:41;6.60;65.10
20866;DHT22;10593;48.398;10.698;2022-12-05T11:22:50;6.60;65.10
20866;DHT22;10593;48.398;10.698;2022-12-05T11:27:56;6.60;65.10
20866;DHT22;10593;48.398;10.698;2022-12-05T11:30:25;6.70;65.00
20866;DHT22;10593;48.398;10.698;2022-12-05T11:33:19;6.70;65.00
20866;DHT22;10593;48.398;10.698;2022-12-05T11:35:49;6.70;65.20
20866;DHT22;10593;48.398;10.698;2022-12-05T11:38:20;6.70;65.00
20866;DHT22;10593;48.398;10.698;2022-12-05T11:50:01;6.70;65.20
20866;DHT22;10593;48.398;10.698;2022-12-05T11:53:29;6.70;65.10
20866;DHT22;10593;48.398;10.698;2022-12-05T12:05:02;6.70;64.90
20866;DHT22;10593;48.398;10.698;2022-12-05T12:08:02;6.70;65.20
20866;DHT22;10593;48.398;10.698;2022-12-05T12:10:45;6.80;65.40
20866;DHT22;10593;48.398;10.698;2022-12-05T12:13:28;6.70;65.30
20866;DHT22;10593;48.398;10.698;2022-12-05T12:22:34;6.80;65.40
20866;DHT22;10593;48.398;10.698;2022-12-05T12:28:45;6.80;65.20
20866;DHT22;10593;48.398;10.698;2022-12-05T12:34:34;6.80;65.20
20866;DHT22;10593;48.398;10.698;2022-12-05T12:41:01;6.80;65.10
20866;DHT22;10593;48.398;10.698;2022-12-05T12:43:35;6.90;65.10
20866;DHT22;10593;48.398;10.698;2022-12-05T12:46:44;6.90;65.10
20866;DHT22;10593;48.398;10.698;2022-12-05T12:49:39;6.80;65.00
20866;DHT22;10593;48.398;10.698;2022-12-05T12:52:21;6.90;65.10
20866;DHT22;10593;48.398;10.698;2022-12-05T12:55:07;6.90;65.10
20866;DHT22;10593;48.398;10.698;2022-12-05T12:58:10;6.90;65.10
20866;DHT22;10593;48.398;10.698;2022-12-05T13:00:56;6.90;65.20
20866;DHT22;10593;48.398;10.698;2022-12-05T13:03:45;6.90;65.10
20866;DHT22;10593;48.398;10.698;2022-12-05T13:06:23;6.90;65.20
20866;DHT22;10593;48.398;10.698;2022-12-05T13:09:04;6.90;65.10
20866;DHT22;10593;48.398;10.698;2022-12-05T13:11:38;6.90;65.10
20866;DHT22;10593;48.398;10.698;2022-12-05T13:14:12;6.90;65.00
20866;DHT22;10593;48.398;10.698;2022-12-05T13:16:44;6.90;65.70
20866;DHT22;10593;48.398;10.698;2022-12-05T13:19:24;6.90;65.00
20866;DHT22;10593;48.398;10.698;2022-12-05T13:21:56;6.90;65.00
20866;DHT22;10593;48.398;10.698;2022-12-05T13:24:26;6.90;64.90
20866;DHT22;10593;48.398;10.698;2022-12-05T13:26:58;7.00;65.00
20866;DHT22;10593;48.398;10.698;2022-12-05T13:29:37;7.00;65.00
20866;DHT22;10593;48.398;10.698;2022-12-05T13:32:32;7.00;65.00
20866;DHT22;10593;48.398;10.698;2022-12-05T13:37:35;7.00;65.10
20866;DHT22;10593;48.398;10.698;2022-12-05T13:40:40;7.00;65.10
20866;DHT22;10593;48.398;10.698;2022-12-05T13:43:41;7.00;65.10
20866;DHT22;10593;48.398;10.698;2022-12-05T13:46:19;7.00;65.00
20866;DHT22;10593;48.398;10.698;2022-12-05T13:48:58;7.00;65.00
20866;DHT22;10593;48.398;10.698;2022-12-05T13:51:36;7.00;65.00
20866;DHT22;10593;48.398;10.698;2022-12-05T13:54:16;7.00;64.90
20866;DHT22;10593;48.398;10.698;2022-12-05T13:56:52;7.00;64.90
20866;DHT22;10593;48.398;10.698;2022-12-05T14:00:18;7.00;64.80
20866;DHT22;10593;48.398;10.698;2022-12-05T14:02:49;7.00;64.80
20866;DHT22;10593;48.398;10.698;2022-12-05T14:07:49;7.10;64.80
20866;DHT22;10593;48.398;10.698;2022-12-05T14:15:39;7.10;64.70
20866;DHT22;10593;48.398;10.698;2022-12-05T14:18:14;7.10;64.70
20866;DHT22;10593;48.398;10.698;2022-12-05T14:21:00;7.10;64.70
20866;DHT22;10593;48.398;10.698;2022-12-05T14:32:40;7.10;64.50
20866;DHT22;10593;48.398;10.698;2022-12-05T14:35:15;7.10;64.50
20866;DHT22;10593;48.398;10.698;2022-12-05T14:38:03;7.10;64.50
20866;DHT22;10593;48.398;10.698;2022-12-05T14:40:39;7.10;64.40
20866;DHT22;10593;48.398;10.698;2022-12-05T14:43:26;7.10;64.40
20866;DHT22;10593;48.398;10.698;2022-12-05T14:46:04;7.10;64.40
20866;DHT22;10593;48.398;10.698;2022-12-05T14:48:35;7.10;64.50
20866;DHT22;10593;48.398;10.698;2022-12-05T14:54:16;7.10;64.40
20866;DHT22;10593;48.398;10.698;2022-12-05T14:57:00;7.10;64.40
20866;DHT22;10593;48.398;10.698;2022-12-05T14:59:42;7.10;64.30
20866;DHT22;10593;48.398;10.698;2022-12-05T15:02:24;7.10;64.20
20866;DHT22;10593;48.398;10.698;2022-12-05T15:05:26;7.10;64.10
20866;DHT22;10593;48.398;10.698;2022-12-05T15:07:56;7.10;64.10
20866;DHT22;10593;48.398;10.698;2022-12-05T15:10:39;7.10;64.10
20866;DHT22;10593;48.398;10.698;2022-12-05T15:13:13;7.10;64.10
20866;DHT22;10593;48.398;10.698;2022-12-05T15:16:00;7.10;64.20
20866;DHT22;10593;48.398;10.698;2022-12-05T15:18:38;7.10;64.20
20866;DHT22;10593;48.398;10.698;2022-12-05T15:21:28;7.10;64.20
20866;DHT22;10593;48.398;10.698;2022-12-05T15:24:02;7.10;64.10
20866;DHT22;10593;48.398;10.698;2022-12-05T15:26:40;7.10;64.00
20866;DHT22;10593;48.398;10.698;2022-12-05T15:34:41;7.10;63.80
20866;DHT22;10593;48.398;10.698;2022-12-05T15:37:47;7.10;63.70
20866;DHT22;10593;48.398;10.698;2022-12-05T15:40:19;7.10;63.70
20866;DHT22;10593;48.398;10.698;2022-12-05T15:42:49;7.10;63.70
20866;DHT22;10593;48.398;10.698;2022-12-05T15:45:20;7.10;63.70
20866;DHT22;10593;48.398;10.698;2022-12-05T15:53:15;7.10;63.60
20866;DHT22;10593;48.398;10.698;2022-12-05T15:55:47;7.10;63.50
20866;DHT22;10593;48.398;10.698;2022-12-05T16:01:22;7.10;63.50
20866;DHT22;10593;48.398;10.698;2022-12-05T16:03:58;7.10;63.50
20866;DHT22;10593;48.398;10.698;2022-12-05T16:06:56;7.10;63.50
20866;DHT22;10593;48.398;10.698;2022-12-05T16:09:30;7.10;63.50
20866;DHT22;10593;48.398;10.698;2022-12-05T16:12:22;7.10;63.50
20866;DHT22;10593;48.398;10.698;2022-12-05T16:14:57;7.10;63.50
20866;DHT22;10593;48.398;10.698;2022-12-05T16:17:30;7.10;63.50
20866;DHT22;10593;48.398;10.698;2022-12-05T16:22:44;7.10;63.50
20866;DHT22;10593;48.398;10.698;2022-12-05T16:25:20;7.10;63.50
20866;DHT22;10593;48.398;10.698;2022-12-05T16:27:56;7.10;63.50
20866;DHT22;10593;48.398;10.698;2022-12-05T16:30:24;7.10;63.50
20866;DHT22;10593;48.398;10.698;2022-12-05T16:32:59;7.10;63.50
20866;DHT22;10593;48.398;10.698;2022-12-05T16:38:11;7.10;63.40
20866;DHT22;10593;48.398;10.698;2022-12-05T16:48:44;7.10;63.50
20866;DHT22;10593;48.398;10.698;2022-12-05T16:51:21;7.10;63.30
20866;DHT22;10593;48.398;10.698;2022-12-05T16:53:54;7.10;63.30
20866;DHT22;10593;48.398;10.698;2022-12-05T16:56:31;7.00;63.20
20866;DHT22;10593;48.398;10.698;2022-12-05T16:59:01;7.10;63.20
20866;DHT22;10593;48.398;10.698;2022-12-05T17:01:28;7.00;63.20
20866;DHT22;10593;48.398;10.698;2022-12-05T17:03:55;7.00;63.20
20866;DHT22;10593;48.398;10.698;2022-12-05T17:06:23;7.00;63.20
20866;DHT22;10593;48.398;10.698;2022-12-05T17:08:53;7.00;63.30
20866;DHT22;10593;48.398;10.698;2022-12-05T17:11:28;7.00;63.30
20866;DHT22;10593;48.398;10.698;2022-12-05T17:13:57;7.00;63.30
20866;DHT22;10593;48.398;10.698;2022-12-05T17:16:23;7.00;63.20
20866;DHT22;10593;48.398;10.698;2022-12-05T17:18:50;7.00;63.30
20866;DHT22;10593;48.398;10.698;2022-12-05T17:21:19;7.00;63.30
20866;DHT22;10593;48.398;10.698;2022-12-05T17:23:46;7.00;63.30
20866;DHT22;10593;48.398;10.698;2022-12-05T17:26:13;7.00;63.30
20866;DHT22;10593;48.398;10.698;2022-12-05T17:28:40;7.00;63.30
20866;DHT22;10593;48.398;10.698;2022-12-05T17:31:08;7.00;63.20
20866;DHT22;10593;48.398;10.698;2022-12-05T17:33:36;7.00;63.20
20866;DHT22;10593;48.398;10.698;2022-12-05T17:36:03;7.00;63.20
20866;DHT22;10593;48.398;10.698;2022-12-05T17:38:28;7.00;63.20
20866;DHT22;10593;48.398;10.698;2022-12-05T17:40:54;7.00;63.20
20866;DHT22;10593;48.398;10.698;2022-12-05T17:43:20;6.90;63.10
20866;DHT22;10593;48.398;10.698;2022-12-05T17:45:45;7.00;63.20
20866;DHT22;10593;48.398;10.698;2022-12-05T17:48:13;7.00;63.20
20866;DHT22;10593;48.398;10.698;2022-12-05T17:50:40;6.90;63.10
20866;DHT22;10593;48.398;10.698;2022-12-05T17:53:12;6.90;63.00
20866;DHT22;10593;48.398;10.698;2022-12-05T17:55:40;6.90;63.00
20866;DHT22;10593;48.398;10.698;2022-12-05T17:58:07;6.90;63.00
20866;DHT22;10593;48.398;10.698;2022-12-05T18:00:33;6.90;62.90
20866;DHT22;10593;48.398;10.698;2022-12-05T18:02:59;6.90;62.90
20866;DHT22;10593;48.398;10.698;2022-12-05T18:05:25;6.90;62.90
20866;DHT22;10593;48.398;10.698;2022-12-05T18:07:50;6.90;62.90
20866;DHT22;10593;48.398;10.698;2022-12-05T18:10:18;6.90;62.90
20866;DHT22;10593;48.398;10.698;2022-12-05T18:12:46;6.90;62.90
20866;DHT22;10593;48.398;10.698;2022-12-05T18:15:13;6.90;62.80
20866;DHT22;10593;48.398;10.698;2022-12-05T18:17:40;6.90;62.80
20866;DHT22;10593;48.398;10.698;2022-12-05T18:20:08;6.90;62.80
20866;DHT22;10593;48.398;10.698;2022-12-05T18:22:36;6.90;62.90
20866;DHT22;10593;48.398;10.698;2022-12-05T18:25:03;6.80;62.80
20866;DHT22;10593;48.398;10.698;2022-12-05T18:27:31;6.80;62.90
20866;DHT22;10593;48.398;10.698;2022-12-05T18:29:58;6.80;62.90
20866;DHT22;10593;48.398;10.698;2022-12-05T18:32:24;6.80;62.90
20866;DHT22;10593;48.398;10.698;2022-12-05T18:34:49;6.80;63.00
20866;DHT22;10593;48.398;10.698;2022-12-05T18:37:15;6.80;63.00
20866;DHT22;10593;48.398;10.698;2022-12-05T18:39:43;6.80;63.00
20866;DHT22;10593;48.398;10.698;2022-12-05T18:42:09;6.80;63.00
20866;DHT22;10593;48.398;10.698;2022-12-05T18:44:35;6.80;63.00
20866;DHT22;10593;48.398;10.698;2022-12-05T18:47:01;6.80;63.10
20866;DHT22;10593;48.398;10.698;2022-12-05T18:49:29;6.80;63.10